Terminal Aerodrome Forecast
Issued by NWS

Home | Current Version | Previous Version | Text Only | Print | Product List | Glossary On
Versions: 1 2 3 4 5 6 7 8 9 10 11 12 13 14 15 16 17 18 19 20 21 22 23 24 25 26 27
000
FTUS44 KOUN 242330
TAFLAW
TAF
KLAW 242330Z 2500/2524 14010KT P6SM SCT040
     FM250700 16013KT P6SM OVC015
     FM251400 17014G20KT P6SM BKN035 PROB30 2520/2524 3SM -TSRA
      BKN020CB OVC100=

USA.gov is the U.S. government's official web portal to all federal, state and local government web resources and services.